Campanya Meteocatpedra
Centenari de l'SMC: 100 anys mirant el cel

Dades de l'estació automàtica Gimenells

?
?

Resum diari

22:00 TU
Dades diàries de l'estació meteorològica
Temperatura mitjana 17.7 °C
Temperatura màxima 24.5 °C 13:12 TU
Temperatura mínima 11.3 °C 5:58 TU
Humitat relativa mitjana 61%
Precipitació acumulada 0.0 mm
Ratxa màxima del vent (2 m) 28.4 km/h - 285º 15:53 TU
Irradiació solar global 20.3 MJ/m2

El tram horari està expressat en Temps Universal (TU). Cal sumar una hora en horari d'hivern i dues en horari d'estiu per passar a l'hora oficial.

Gimenells

Metadades estació meteorològica
Municipi Gimenells i el Pla de la Font
Comarca Segrià
Altitud 259 m
Data alta 10.12.1996
Estat actual Operativa
Dades de període
Període
TU
TM
°C
TX
°C
TN
°C
HRM
%
PPT
mm
VVM (2 m)
km/h
DVM (2 m)
graus
VVX (2 m)
km/h
RS
W/m2
00:00 - 00:30 13.4 13.7 13.2 86 0.0 0.0 197 1.1 0
00:30 - 01:00 13.3 13.6 12.9 86 0.0 0.0 185 2.5 0
01:00 - 01:30 13.2 13.4 13.2 85 0.0 0.0 261 1.8 0
01:30 - 02:00 12.6 13.3 12.0 89 0.0 0.0 235 0.4 0
02:00 - 02:30 12.0 12.3 11.9 92 0.0 0.0 209 1.4 0
02:30 - 03:00 12.0 12.4 11.6 90 0.0 0.0 231 0.4 0
03:00 - 03:30 11.6 11.7 11.5 93 0.0 0.0 215 0.7 0
03:30 - 04:00 12.0 12.4 11.5 90 0.0 0.0 236 2.9 0
04:00 - 04:30 12.2 12.3 12.1 88 0.0 0.0 221 2.5 0
04:30 - 05:00 12.1 12.4 11.9 90 0.0 0.0 267 3.6 0
05:00 - 05:30 11.8 12.2 11.6 92 0.0 0.0 263 1.8 0
05:30 - 06:00 11.5 11.9 11.3 94 0.0 0.0 209 1.1 2
06:00 - 06:30 11.7 12.7 11.4 93 0.0 0.4 111 2.9 30
06:30 - 07:00 14.9 16.5 12.8 81 0.0 0.0 121 2.2 136
07:00 - 07:30 17.1 17.6 16.5 71 0.0 0.4 149 2.9 233
07:30 - 08:00 17.2 17.6 16.5 69 0.0 1.8 255 10.1 281
08:00 - 08:30 17.5 18.0 16.7 69 0.0 5.8 284 15.5 401
08:30 - 09:00 18.1 19.0 17.3 66 0.0 6.5 282 21.2 457
09:00 - 09:30 19.6 20.2 19.2 61 0.0 5.8 265 17.6 600
09:30 - 10:00 20.4 20.6 20.1 57 0.0 7.6 276 18.7 664
10:00 - 10:30 21.4 21.7 20.7 54 0.0 5.4 268 18.4 716
10:30 - 11:00 21.9 22.5 21.4 51 0.0 7.6 282 16.9 754
11:00 - 11:30 22.7 22.9 22.3 46 0.0 8.6 276 20.2 785
11:30 - 12:00 23.3 23.6 22.9 42 0.0 9.4 279 25.9 799
12:00 - 12:30 23.7 24.1 23.1 37 0.0 9.0 276 23.8 797
12:30 - 13:00 23.8 24.2 23.5 33 0.0 10.8 277 23.4 780
13:00 - 13:30 24.4 24.5 24.1 31 0.0 8.3 271 22.7 746
13:30 - 14:00 24.3 24.5 23.8 30 0.0 10.1 275 25.6 699
14:00 - 14:30 24.0 24.4 23.7 31 0.0 10.8 282 24.8 635
14:30 - 15:00 23.9 24.2 23.7 34 0.0 9.7 277 23.8 558
15:00 - 15:30 23.5 23.9 23.0 35 0.0 10.4 275 25.2 473
15:30 - 16:00 22.7 23.1 22.4 36 0.0 13.0 280 28.4 383
16:00 - 16:30 22.2 22.5 22.0 37 0.0 10.1 270 23.4 213
16:30 - 17:00 21.4 22.0 20.4 36 0.0 8.3 266 23.0 105
17:00 - 17:30 20.1 20.3 19.6 39 0.0 5.8 262 18.0 42
17:30 - 18:00 19.2 19.6 18.8 42 0.0 4.0 255 13.3 8
18:00 - 18:30 18.5 18.7 18.2 45 0.0 3.6 250 10.4 0
18:30 - 19:00 18.0 18.2 17.9 50 0.0 4.0 256 16.6 0
19:00 - 19:30 17.9 18.1 17.6 49 0.0 6.5 275 17.6 0
19:30 - 20:00 17.4 17.6 17.2 50 0.0 6.8 273 18.7 0
20:00 - 20:30 16.9 17.3 16.6 53 0.0 7.9 275 24.5 0
20:30 - 21:00 16.2 16.6 16.0 59 0.0 7.9 279 18.0 0
21:00 - 21:30 15.8 16.0 15.6 62 0.0 9.4 286 22.0 0
21:30 - 22:00 15.1 15.6 14.7 65 0.0 6.5 286 13.7 0
22:00 - 22:30 14.2 14.6 13.9 70 0.0 2.9 278 8.3 0

Les dades en taronja només han passat un control de qualitat automàtic. Resta pendent la seva validació definitiva.